Ninilchik, Alaska
Current Conditions -  °F | °C
As of 2:53 PM on Monday 20 Oct 2014 (Local Time) from PAHO Reporting Station
Overcast Overcast  
Wind Chill: 34°   Ceiling: 4000
Heat Index: 41°   Visibility: 10mi
Dew Point: 30°   Wind: 13mph
Humidity: 65%   Direction: 250°WSW
Pressure: 29.07"   Gusts: NA
Location:  60.05°N, 151.65°W
Report Text: PAHO 202253Z 25011KT 10SM FEW021 OVC040 05/M01 A2907 RMK AO2 SLP846 T00501011
Loading
Personal Weather Stations






























Interactive Weather Map
Tropical Storm Tracking
New forecast layout! Learn more

10-Day Weather Forecast

Advertisements
Track Severe Weather on mobile